INFORMAÇÕES METEOROLÓGICAS
METAR FOR PAAK
ADDS - METARS form results

(0827 UTC 17 September 2019)
Data provider http://aviationweather.gov/metar/data/
 
METAR text: PAAK 170821Z AUTO 22008KT 10SM FEW012 BKN022 OVC027 09/08 A2946 RMK AO2 PNO $
Conditions at: PAAK (ATKA , AK, US) observed 0821 UTC 17 September 2019
Temperature: 9.0°C (48°F)
Dewpoint: 8.0°C (46°F) [RH = 93%]
Pressure (altimeter): 29.46 inches Hg (997.7 mb)
Winds: from the SW (220 degrees) at 9 MPH (8 knots; 4.1 m/s)
Visibility: 10 or more miles (16+ km)
Ceiling: 2200 feet AGL
Clouds: few clouds at 1200 feet AGL
broken clouds at 2200 feet AGL
overcast cloud deck at 2700 feet AGL
Weather:
SOME DATA ABOVE MAY BE INACCURATE!!!
"$" is an indication the sensor requires maintenance

METAR text: PAAK 170812Z AUTO 21008KT 8SM BKN012 OVC020 09/08 A2946 RMK AO2 PNO $
Conditions at: PAAK (ATKA , AK, US) observed 0812 UTC 17 September 2019
Temperature: 9.0°C (48°F)
Dewpoint: 8.0°C (46°F) [RH = 93%]
Pressure (altimeter): 29.46 inches Hg (997.7 mb)
Winds: from the SSW (210 degrees) at 9 MPH (8 knots; 4.1 m/s)
Visibility: 8 miles (13 km)
Ceiling: 1200 feet AGL
Clouds: broken clouds at 1200 feet AGL
overcast cloud deck at 2000 feet AGL
Weather:
SOME DATA ABOVE MAY BE INACCURATE!!!
"$" is an indication the sensor requires maintenance

METAR text: PAAK 170756Z AUTO 21010KT 10SM BKN015 OVC022 10/08 A2945 RMK AO2 RAB01E16 SLP975 T01000078 PNO $
Conditions at: PAAK (ATKA , AK, US) observed 0756 UTC 17 September 2019
Temperature: 10.0°C (50°F)
Dewpoint: 7.8°C (46°F) [RH = 86%]
Pressure (altimeter): 29.45 inches Hg (997.4 mb)
[Sea-level pressure:  997.5 mb]
Winds: from the SSW (210 degrees) at 12 MPH (10 knots; 5.1 m/s)
Visibility: 10 or more miles (16+ km)
Ceiling: 1500 feet AGL
Clouds: broken clouds at 1500 feet AGL
overcast cloud deck at 2200 feet AGL
Weather:
SOME DATA ABOVE MAY BE INACCURATE!!!
"$" is an indication the sensor requires maintenance

 MAPA DO AEROPORTO

 INFORMAÇÕES DA PISTA
Pista 16 Tamanho da pista 4500 ft Largura da pista 100 ft
Elevação da pista 56 ft Ranhura da pista 0 ft Proa da pista 165
Pista 34 Tamanho da pista 4500 ft Largura da pista 100 ft
Elevação da pista 46 ft Ranhura da pista 0 ft Proa da pista 345

 FREQUÊNCIAS DO AEROPORTO

 AUXÍLIOS DE NAVEGAÇÃO PRÓXIMOS AO AEROPORTO



Powered by Mercosul Lnhas Aereas